createdAt,value
2022-08-19T00:00:24.730Z,6.83
2022-08-19T00:02:55.102Z,6.17
2022-08-19T00:05:24.675Z,6.80
2022-08-19T00:07:53.413Z,6.60
2022-08-19T00:10:22.561Z,6.80
2022-08-19T00:12:51.274Z,6.83
2022-08-19T00:15:21.636Z,6.60
2022-08-19T00:17:50.708Z,6.57
2022-08-19T00:20:22.225Z,7.00
2022-08-19T00:22:51.283Z,6.30
2022-08-19T00:25:30.285Z,6.50
2022-08-19T00:27:59.830Z,6.63
2022-08-19T00:30:29.041Z,6.60
2022-08-19T00:32:57.627Z,7.67
2022-08-19T00:35:28.605Z,7.10
2022-08-19T00:37:57.627Z,7.67
2022-08-19T00:40:26.525Z,7.70
2022-08-19T00:42:55.708Z,8.10
2022-08-19T00:45:25.344Z,7.67
2022-08-19T00:47:53.998Z,8.40
2022-08-19T00:50:22.999Z,8.57
2022-08-19T00:52:54.438Z,7.67
2022-08-19T00:55:24.361Z,7.47
2022-08-19T00:57:56.325Z,7.87
2022-08-19T01:00:26.269Z,8.17
2022-08-19T01:02:55.425Z,10.77
2022-08-19T01:05:25.296Z,12.37
2022-08-19T01:07:55.606Z,14.63
2022-08-19T01:10:25.917Z,14.60
2022-08-19T01:12:55.088Z,13.73
2022-08-19T01:15:25.488Z,14.73
2022-08-19T01:17:54.629Z,15.07
2022-08-19T01:20:24.929Z,14.27
2022-08-19T01:22:56.079Z,14.33
2022-08-19T01:25:26.947Z,14.17
2022-08-19T01:28:07.953Z,14.60
2022-08-19T01:30:39.925Z,13.93
2022-08-19T01:33:13.420Z,13.80
2022-08-19T01:35:42.140Z,12.03
2022-08-19T01:38:13.509Z,14.13
2022-08-19T01:40:43.171Z,13.90
2022-08-19T01:43:11.888Z,14.90
2022-08-19T01:45:41.081Z,13.53
2022-08-19T01:48:09.963Z,14.20
2022-08-19T01:50:38.682Z,13.33
2022-08-19T01:53:08.421Z,15.40
2022-08-19T01:55:40.864Z,15.37
2022-08-19T01:58:11.616Z,14.50
2022-08-19T02:00:40.267Z,12.53
2022-08-19T02:03:09.495Z,12.20
2022-08-19T02:05:38.310Z,12.07
2022-08-19T02:08:07.479Z,10.67
2022-08-19T02:10:36.083Z,9.57
2022-08-19T02:13:06.042Z,9.20
2022-08-19T02:15:34.651Z,8.93
2022-08-19T02:18:03.241Z,9.57
2022-08-19T02:20:31.948Z,9.73
2022-08-19T02:23:02.220Z,9.27
2022-08-19T02:25:31.021Z,9.77
2022-08-19T02:27:59.649Z,9.60
2022-08-19T02:30:29.590Z,9.67
2022-08-19T02:32:58.830Z,10.00
2022-08-19T02:35:27.751Z,9.63
2022-08-19T02:38:14.147Z,9.80
2022-08-19T02:40:42.860Z,9.43
2022-08-19T02:43:11.633Z,8.93
2022-08-19T02:45:42.088Z,8.73
2022-08-19T02:48:21.742Z,8.60
2022-08-19T02:50:53.812Z,8.97
2022-08-19T02:53:23.094Z,9.13
2022-08-19T02:55:52.040Z,9.57
2022-08-19T02:58:21.156Z,11.90
2022-08-19T03:00:52.549Z,13.97
2022-08-19T03:03:21.192Z,12.60
2022-08-19T03:05:56.426Z,13.23
2022-08-19T03:08:26.795Z,11.77
2022-08-19T03:10:55.695Z,11.73
2022-08-19T03:13:24.986Z,11.70
2022-08-19T03:15:54.945Z,11.20
2022-08-19T03:18:23.545Z,11.33
2022-08-19T03:20:55.715Z,11.57
2022-08-19T03:23:24.666Z,13.30
2022-08-19T03:25:58.291Z,12.63
2022-08-19T03:28:35.110Z,12.90
2022-08-19T03:31:41.850Z,11.77
2022-08-19T03:33:55.889Z,13.83
2022-08-19T03:36:25.443Z,12.33
2022-08-19T03:38:59.613Z,11.93
2022-08-19T03:41:34.222Z,11.60
2022-08-19T03:44:17.787Z,11.97
2022-08-19T03:46:49.069Z,11.47
2022-08-19T03:49:18.400Z,12.30
2022-08-19T03:51:48.003Z,11.87
2022-08-19T03:54:18.106Z,12.87
2022-08-19T03:56:47.671Z,13.30
2022-08-19T03:59:18.303Z,17.03
2022-08-19T04:01:46.958Z,17.67
2022-08-19T04:04:16.891Z,15.30
2022-08-19T04:06:48.801Z,14.87
2022-08-19T04:09:17.703Z,13.93
2022-08-19T04:11:50.344Z,13.87
2022-08-19T04:14:19.854Z,13.67
2022-08-19T04:16:49.119Z,15.23
2022-08-19T04:19:19.577Z,15.00
2022-08-19T04:21:49.341Z,15.23
2022-08-19T04:24:18.300Z,16.43
2022-08-19T04:26:47.430Z,16.13
2022-08-19T04:29:17.649Z,16.73
2022-08-19T04:31:46.567Z,23.70
2022-08-19T04:34:16.422Z,29.70
2022-08-19T04:36:47.228Z,30.53
2022-08-19T04:39:17.558Z,30.17
2022-08-19T04:42:03.933Z,32.93
2022-08-19T04:44:33.262Z,32.60
2022-08-19T04:47:11.195Z,30.57
2022-08-19T04:49:40.316Z,32.53
2022-08-19T04:52:10.340Z,33.53
2022-08-19T04:54:40.070Z,33.13
2022-08-19T04:57:09.637Z,29.07
2022-08-19T04:59:38.401Z,33.93
2022-08-19T05:02:07.180Z,29.90
2022-08-19T05:04:38.973Z,29.73
2022-08-19T05:07:08.427Z,32.63
2022-08-19T05:09:56.617Z,28.50
2022-08-19T05:12:29.212Z,32.50
2022-08-19T05:14:58.609Z,35.33
2022-08-19T05:17:30.141Z,30.33
2022-08-19T05:20:18.713Z,28.30
2022-08-19T05:22:48.241Z,28.30
2022-08-19T05:25:20.432Z,28.50
2022-08-19T05:27:49.524Z,26.90
2022-08-19T05:30:18.484Z,25.43
2022-08-19T05:32:47.310Z,23.57
2022-08-19T05:35:15.929Z,27.03
2022-08-19T05:37:44.536Z,25.43
2022-08-19T05:40:13.385Z,25.70
2022-08-19T05:42:43.353Z,26.43
2022-08-19T05:45:12.402Z,26.17
2022-08-19T05:47:42.452Z,28.20
2022-08-19T05:50:11.460Z,25.17
2022-08-19T05:52:45.881Z,28.20
2022-08-19T05:55:21.140Z,28.77
2022-08-19T05:57:51.226Z,26.50
2022-08-19T06:00:24.458Z,26.93
2022-08-19T06:02:55.559Z,31.13
2022-08-19T06:05:24.402Z,26.10
2022-08-19T06:07:54.268Z,25.63
2022-08-19T06:10:23.237Z,23.77
2022-08-19T06:12:53.249Z,21.53
2022-08-19T06:15:22.940Z,21.90
2022-08-19T06:17:51.581Z,21.73
2022-08-19T06:20:39.829Z,20.53
2022-08-19T06:23:10.121Z,21.83
2022-08-19T06:25:38.796Z,21.10
2022-08-19T06:28:15.195Z,24.60
2022-08-19T06:30:44.253Z,24.83
2022-08-19T06:33:12.899Z,23.23
2022-08-19T06:35:41.886Z,20.43
2022-08-19T06:38:11.042Z,21.80
2022-08-19T06:40:39.760Z,26.50
2022-08-19T06:43:09.829Z,24.50
2022-08-19T06:45:40.272Z,22.10
2022-08-19T06:48:08.913Z,23.63
2022-08-19T06:50:41.096Z,22.60
2022-08-19T06:53:09.778Z,24.97
2022-08-19T06:55:38.482Z,21.33
2022-08-19T06:58:07.081Z,20.23
2022-08-19T07:00:37.474Z,22.20
2022-08-19T07:03:08.736Z,20.63
2022-08-19T07:05:41.192Z,21.87
2022-08-19T07:08:12.037Z,22.73
2022-08-19T07:10:44.924Z,20.10
2022-08-19T07:13:13.554Z,20.77
2022-08-19T07:15:43.675Z,20.27
2022-08-19T07:18:12.323Z,19.63
2022-08-19T07:20:41.922Z,18.37
2022-08-19T07:23:16.008Z,18.13
2022-08-19T07:25:52.738Z,16.93
2022-08-19T07:28:24.128Z,17.13
2022-08-19T07:30:54.869Z,18.13
2022-08-19T07:33:24.154Z,19.93
2022-08-19T07:35:56.568Z,22.33
2022-08-19T07:38:25.167Z,21.93
2022-08-19T07:40:54.797Z,24.50
2022-08-19T07:43:26.141Z,21.53
2022-08-19T07:46:05.233Z,22.30
2022-08-19T07:48:34.047Z,22.50
2022-08-19T07:51:03.650Z,23.47
2022-08-19T07:53:36.706Z,23.80
2022-08-19T07:56:08.300Z,23.73
2022-08-19T07:58:39.824Z,23.50
2022-08-19T08:01:11.033Z,27.20
2022-08-19T08:03:57.671Z,28.03
2022-08-19T08:06:46.455Z,24.27
2022-08-19T08:12:01.890Z,25.67
2022-08-19T08:14:35.974Z,28.00
2022-08-19T08:17:10.718Z,26.77
2022-08-19T08:19:41.966Z,27.50
2022-08-19T08:22:31.647Z,25.47
2022-08-19T08:25:03.648Z,23.70
2022-08-19T08:27:40.454Z,23.13
2022-08-19T08:30:10.657Z,22.53
2022-08-19T08:32:42.325Z,23.67
2022-08-19T08:35:12.517Z,24.40
2022-08-19T08:37:41.109Z,21.37
2022-08-19T08:40:16.896Z,22.27
2022-08-19T08:42:50.102Z,23.17
2022-08-19T08:45:19.470Z,23.77
2022-08-19T08:47:51.209Z,24.00
2022-08-19T08:50:23.588Z,24.03
2022-08-19T08:52:58.490Z,23.70
2022-08-19T08:55:36.753Z,25.67
2022-08-19T08:58:07.578Z,25.23
2022-08-19T09:00:37.289Z,25.70
2022-08-19T09:03:08.723Z,26.00
2022-08-19T09:05:48.300Z,25.43
2022-08-19T09:08:20.023Z,26.33
2022-08-19T09:10:55.223Z,25.27
2022-08-19T09:13:28.284Z,24.33
2022-08-19T09:16:01.980Z,25.77
2022-08-19T09:18:40.976Z,25.80
2022-08-19T09:21:09.884Z,24.87
2022-08-19T09:23:38.548Z,24.73
2022-08-19T09:26:10.407Z,26.40
2022-08-19T09:28:44.225Z,23.03
2022-08-19T09:31:18.778Z,22.70
2022-08-19T09:33:48.780Z,23.77
2022-08-19T09:36:31.136Z,22.90
2022-08-19T09:39:05.512Z,22.90
2022-08-19T09:41:47.541Z,23.03
2022-08-19T09:44:19.082Z,22.80
2022-08-19T09:46:48.910Z,22.17
2022-08-19T09:49:19.601Z,20.73
2022-08-19T09:51:51.836Z,21.07
2022-08-19T09:54:23.646Z,21.77
2022-08-19T09:56:54.098Z,20.83
2022-08-19T09:59:23.186Z,19.43
2022-08-19T10:01:52.612Z,21.63
2022-08-19T10:04:23.834Z,19.83
2022-08-19T10:06:53.956Z,20.60
2022-08-19T10:09:33.778Z,21.03
2022-08-19T10:12:03.748Z,20.43
2022-08-19T10:14:33.090Z,19.20
2022-08-19T10:17:20.065Z,19.50
2022-08-19T10:19:55.502Z,19.77
2022-08-19T10:22:25.547Z,19.37
2022-08-19T10:24:54.849Z,17.70
2022-08-19T10:27:23.450Z,18.47
2022-08-19T10:29:55.133Z,19.93
2022-08-19T10:32:33.019Z,18.37
2022-08-19T10:35:06.809Z,18.27
2022-08-19T10:37:35.423Z,18.77
2022-08-19T10:40:04.620Z,16.80
2022-08-19T10:42:33.806Z,17.47
2022-08-19T10:45:02.597Z,17.17
2022-08-19T10:47:33.625Z,17.20
2022-08-19T10:50:21.425Z,16.27
2022-08-19T10:52:57.217Z,16.73
2022-08-19T10:55:44.214Z,15.97
2022-08-19T10:58:14.035Z,15.07
2022-08-19T11:00:43.319Z,14.63
2022-08-19T11:03:12.482Z,14.47
2022-08-19T11:05:42.448Z,13.63
2022-08-19T11:08:22.564Z,14.73
2022-08-19T11:10:54.398Z,14.87
2022-08-19T11:13:24.139Z,15.50
2022-08-19T11:16:01.711Z,14.70
2022-08-19T11:18:32.522Z,16.23
2022-08-19T11:21:09.044Z,14.97
2022-08-19T11:23:37.644Z,15.47
2022-08-19T11:26:06.489Z,16.67
2022-08-19T11:28:35.158Z,16.40
2022-08-19T11:31:04.302Z,15.30
2022-08-19T11:33:33.573Z,14.63
2022-08-19T11:36:03.427Z,14.70
2022-08-19T11:38:33.400Z,15.77
2022-08-19T11:41:03.259Z,14.30
2022-08-19T11:43:36.871Z,16.38
2022-08-19T11:46:08.284Z,15.27
2022-08-19T11:48:37.448Z,14.30
2022-08-19T11:51:08.241Z,15.57
2022-08-19T11:53:38.538Z,15.82
2022-08-19T11:56:08.163Z,15.25
2022-08-19T11:58:37.118Z,15.23
2022-08-19T12:01:08.023Z,14.65
2022-08-19T12:03:36.833Z,13.75
2022-08-19T12:06:06.375Z,13.95
2022-08-19T12:08:35.039Z,12.93
2022-08-19T12:11:05.107Z,12.88
2022-08-19T12:13:34.045Z,12.80
2022-08-19T12:16:02.937Z,13.15
2022-08-19T12:18:33.821Z,9.57
2022-08-19T12:21:02.417Z,7.65
2022-08-19T12:23:31.589Z,8.68
2022-08-19T12:26:00.206Z,6.72
2022-08-19T12:28:30.220Z,6.50
2022-08-19T12:30:58.926Z,7.15
2022-08-19T12:33:29.160Z,5.78
2022-08-19T12:36:02.435Z,5.60
2022-08-19T12:38:31.072Z,4.60
2022-08-19T12:41:00.418Z,5.13
2022-08-19T12:43:31.293Z,5.50
2022-08-19T12:45:59.895Z,4.43
2022-08-19T12:48:33.462Z,4.93
2022-08-19T12:51:03.866Z,4.40
2022-08-19T12:53:32.470Z,3.78
2022-08-19T12:56:03.197Z,3.65
2022-08-19T12:58:37.430Z,3.00
2022-08-19T13:01:09.475Z,3.70
2022-08-19T13:03:40.580Z,3.42
2022-08-19T13:06:09.808Z,3.15
2022-08-19T13:08:39.356Z,2.85
2022-08-19T13:11:12.817Z,2.70
2022-08-19T13:13:44.857Z,2.90
2022-08-19T13:16:14.848Z,3.20
2022-08-19T13:18:44.465Z,3.20
2022-08-19T13:21:14.073Z,3.10
2022-08-19T13:23:43.079Z,2.60
2022-08-19T13:26:12.763Z,2.60
2022-08-19T13:29:00.915Z,2.80
2022-08-19T13:31:49.271Z,2.47
2022-08-19T13:34:18.961Z,2.50
2022-08-19T13:36:47.700Z,2.17
2022-08-19T13:39:16.334Z,2.10
2022-08-19T13:41:48.765Z,2.10
2022-08-19T13:44:19.942Z,1.87
2022-08-19T13:46:49.521Z,1.77
2022-08-19T13:49:24.054Z,1.80
2022-08-19T13:51:52.709Z,1.90
2022-08-19T13:54:21.313Z,1.60
2022-08-19T13:56:50.018Z,1.70
2022-08-19T13:59:20.061Z,1.70
2022-08-19T14:01:48.666Z,1.77
2022-08-19T14:04:17.273Z,1.80
2022-08-19T14:06:45.936Z,1.83
2022-08-19T14:09:14.595Z,2.10
2022-08-19T14:11:43.237Z,2.00
2022-08-19T14:14:16.201Z,1.80
2022-08-19T14:16:46.480Z,2.27
2022-08-19T14:19:15.064Z,2.30
2022-08-19T14:21:43.944Z,1.90
2022-08-19T14:24:12.588Z,2.00
2022-08-19T14:26:41.184Z,2.10
2022-08-19T14:29:09.773Z,2.30
2022-08-19T14:31:40.677Z,2.23
2022-08-19T14:34:10.932Z,2.17
2022-08-19T14:36:39.941Z,2.30
2022-08-19T14:39:08.537Z,2.40
2022-08-19T14:41:37.160Z,2.43
2022-08-19T14:44:06.265Z,2.60
2022-08-19T14:46:35.017Z,2.43
2022-08-19T14:49:09.629Z,3.00
2022-08-19T14:51:39.682Z,2.57
2022-08-19T14:54:08.258Z,2.47
2022-08-19T14:56:37.170Z,2.47
2022-08-19T14:59:05.846Z,2.63
2022-08-19T15:01:34.517Z,2.53
2022-08-19T15:04:03.264Z,2.20
2022-08-19T15:06:32.594Z,2.50
2022-08-19T15:09:04.581Z,2.30
2022-08-19T15:11:33.641Z,2.40
2022-08-19T15:14:02.381Z,2.40
2022-08-19T15:16:31.063Z,1.97
2022-08-19T15:19:00.892Z,2.37
2022-08-19T15:21:30.764Z,2.20
2022-08-19T15:24:01.285Z,2.00
2022-08-19T15:26:33.175Z,2.60
2022-08-19T15:29:01.972Z,2.70
2022-08-19T15:31:38.758Z,2.70
2022-08-19T15:34:07.940Z,2.77
2022-08-19T15:36:36.981Z,2.90
2022-08-19T15:39:07.186Z,3.30
2022-08-19T15:41:37.669Z,3.37
2022-08-19T15:44:09.535Z,3.27
2022-08-19T15:46:39.338Z,3.30
2022-08-19T15:49:08.293Z,3.23
2022-08-19T15:51:37.467Z,3.27
2022-08-19T15:54:08.240Z,3.20
2022-08-19T15:57:07.563Z,3.37
2022-08-19T15:59:54.480Z,2.20
2022-08-19T16:02:41.705Z,2.97
2022-08-19T16:05:29.437Z,2.57
2022-08-19T16:07:58.123Z,2.20
2022-08-19T16:10:28.145Z,2.80
2022-08-19T16:12:58.909Z,2.60
2022-08-19T16:15:28.747Z,2.67
2022-08-19T16:17:57.950Z,2.33
2022-08-19T16:20:27.776Z,2.90
2022-08-19T16:22:58.130Z,2.47
2022-08-19T16:25:28.444Z,2.57
2022-08-19T16:28:07.844Z,2.40
2022-08-19T16:30:39.520Z,2.57
2022-08-19T16:33:08.669Z,2.83
2022-08-19T16:35:37.329Z,2.80
2022-08-19T16:38:06.860Z,3.30
2022-08-19T16:40:35.512Z,2.43
2022-08-19T16:43:04.254Z,2.97
2022-08-19T16:45:32.875Z,2.53
2022-08-19T16:48:03.821Z,2.60
2022-08-19T16:50:48.865Z,2.60
2022-08-19T16:53:18.864Z,2.30
2022-08-19T16:55:51.184Z,2.90
2022-08-19T16:58:19.963Z,2.40
2022-08-19T17:00:49.853Z,2.77
2022-08-19T17:03:36.242Z,2.20
2022-08-19T17:06:18.464Z,1.83
2022-08-19T17:08:50.349Z,2.30
2022-08-19T17:11:19.537Z,1.90
2022-08-19T17:13:49.299Z,1.70
2022-08-19T17:16:18.177Z,1.70
2022-08-19T17:18:52.177Z,1.57
2022-08-19T17:21:21.174Z,1.73
2022-08-19T17:23:50.417Z,1.70
2022-08-19T17:26:19.933Z,1.60
2022-08-19T17:28:49.025Z,1.63
2022-08-19T17:31:17.930Z,1.80
2022-08-19T17:33:48.275Z,1.80
2022-08-19T17:36:17.993Z,2.00
2022-08-19T17:38:46.645Z,1.90
2022-08-19T17:41:15.326Z,1.80
2022-08-19T17:43:44.308Z,1.80
2022-08-19T17:46:18.337Z,1.77
2022-08-19T17:48:52.743Z,1.87
2022-08-19T17:51:24.506Z,1.87
2022-08-19T17:53:53.785Z,1.90
2022-08-19T17:56:23.408Z,2.00
2022-08-19T17:59:00.119Z,1.70
2022-08-19T18:01:34.713Z,2.40
2022-08-19T18:04:19.727Z,2.20
2022-08-19T18:06:52.982Z,2.10
2022-08-19T18:09:24.370Z,1.97
2022-08-19T18:11:54.149Z,1.90
2022-08-19T18:14:32.146Z,1.90
2022-08-19T18:17:05.447Z,2.10
2022-08-19T18:19:42.166Z,2.07
2022-08-19T18:22:11.767Z,2.60
2022-08-19T18:24:40.874Z,2.17
2022-08-19T18:27:09.926Z,2.03
2022-08-19T18:29:40.058Z,2.00
2022-08-19T18:32:13.260Z,2.10
2022-08-19T18:34:43.941Z,2.20
2022-08-19T18:37:12.565Z,1.80
2022-08-19T18:39:59.093Z,1.87
2022-08-19T18:42:45.449Z,1.90
2022-08-19T18:45:32.032Z,1.77
2022-08-19T18:48:27.464Z,1.80
2022-08-19T18:50:59.222Z,1.97
2022-08-19T18:53:28.864Z,1.80
2022-08-19T18:55:57.566Z,1.90
2022-08-19T18:58:33.726Z,1.70
2022-08-19T19:01:03.855Z,2.03
2022-08-19T19:03:33.875Z,2.10
2022-08-19T19:06:04.460Z,1.67
2022-08-19T19:08:33.136Z,1.50
2022-08-19T19:11:05.076Z,1.60
2022-08-19T19:13:33.987Z,1.57
2022-08-19T19:16:02.675Z,1.50
2022-08-19T19:18:34.251Z,1.40
2022-08-19T19:21:04.341Z,1.23
2022-08-19T19:23:33.498Z,1.47
2022-08-19T19:26:02.177Z,1.40
2022-08-19T19:28:30.909Z,1.50
2022-08-19T19:30:59.585Z,1.90
2022-08-19T19:33:28.349Z,1.90
2022-08-19T19:35:56.928Z,1.87
2022-08-19T19:38:26.877Z,1.70
2022-08-19T19:40:55.458Z,1.60
2022-08-19T19:43:24.106Z,1.60
2022-08-19T19:45:52.725Z,1.53
2022-08-19T19:48:21.360Z,1.73
2022-08-19T19:50:54.119Z,2.00
2022-08-19T19:53:25.957Z,1.73
2022-08-19T19:55:58.630Z,1.83
2022-08-19T19:58:28.583Z,2.00
2022-08-19T20:00:58.415Z,1.70
2022-08-19T20:03:27.121Z,2.00
2022-08-19T20:05:59.013Z,1.70
2022-08-19T20:08:45.398Z,1.70
2022-08-19T20:11:17.272Z,1.83
2022-08-19T20:13:45.929Z,2.10
2022-08-19T20:16:14.616Z,1.90
2022-08-19T20:18:43.691Z,1.70
2022-08-19T20:21:13.557Z,1.90
2022-08-19T20:23:42.176Z,1.70
2022-08-19T20:26:24.235Z,1.83
2022-08-19T20:29:13.757Z,1.77
2022-08-19T20:31:57.615Z,2.00
2022-08-19T20:34:28.661Z,2.27
2022-08-19T20:36:57.349Z,2.07
2022-08-19T20:39:25.987Z,2.03
2022-08-19T20:41:56.215Z,1.90
2022-08-19T20:44:26.156Z,1.87
2022-08-19T20:46:57.487Z,1.90
2022-08-19T20:49:28.253Z,1.73
2022-08-19T20:51:58.603Z,1.53
2022-08-19T20:54:27.489Z,1.70
2022-08-19T20:56:56.235Z,1.80
2022-08-19T20:59:26.993Z,1.77
2022-08-19T21:01:57.055Z,2.00
2022-08-19T21:04:26.665Z,1.70
2022-08-19T21:06:56.405Z,1.80
2022-08-19T21:09:25.005Z,1.80
2022-08-19T21:11:53.666Z,1.80
2022-08-19T21:14:23.067Z,1.80
2022-08-19T21:16:53.643Z,2.07
2022-08-19T21:19:24.058Z,2.07
2022-08-19T21:21:53.284Z,2.57
2022-08-19T21:24:22.060Z,2.20
2022-08-19T21:27:00.174Z,2.00
2022-08-19T21:29:28.800Z,2.20
2022-08-19T21:31:58.737Z,2.13
2022-08-19T21:34:27.344Z,1.93
2022-08-19T21:36:55.967Z,2.23
2022-08-19T21:39:24.702Z,2.30
2022-08-19T21:41:53.633Z,2.10
2022-08-19T21:44:22.312Z,2.03
2022-08-19T21:46:50.969Z,2.00
2022-08-19T21:49:21.131Z,2.10
2022-08-19T21:51:49.720Z,1.83
2022-08-19T21:54:18.347Z,1.60
2022-08-19T21:56:47.306Z,2.00
2022-08-19T21:59:16.814Z,1.80
2022-08-19T22:01:50.494Z,2.30
2022-08-19T22:04:24.038Z,2.10
2022-08-19T22:06:55.104Z,2.27
2022-08-19T22:09:23.776Z,1.93
2022-08-19T22:11:52.412Z,2.00
2022-08-19T22:14:21.002Z,2.40
2022-08-19T22:16:49.593Z,2.77
2022-08-19T22:19:18.400Z,2.37
2022-08-19T22:21:48.344Z,2.50
2022-08-19T22:24:16.957Z,3.30
2022-08-19T22:26:45.586Z,3.10
2022-08-19T22:29:15.692Z,2.60
2022-08-19T22:31:45.990Z,2.47
2022-08-19T22:34:23.131Z,3.03
2022-08-19T22:36:53.142Z,3.30
2022-08-19T22:39:21.761Z,2.80
2022-08-19T22:41:50.380Z,3.10
2022-08-19T22:44:19.064Z,2.90
2022-08-19T22:46:47.661Z,3.10
2022-08-19T22:49:16.235Z,2.80
2022-08-19T22:52:02.829Z,3.40
2022-08-19T22:54:32.809Z,4.47
2022-08-19T22:57:01.409Z,4.47
2022-08-19T22:59:30.289Z,4.60
2022-08-19T23:01:58.888Z,4.30
2022-08-19T23:04:27.465Z,4.90
2022-08-19T23:06:56.077Z,5.40
2022-08-19T23:09:24.699Z,5.33
2022-08-19T23:12:00.558Z,4.80
2022-08-19T23:14:29.316Z,4.97
2022-08-19T23:16:59.191Z,4.00
2022-08-19T23:19:28.080Z,4.40
2022-08-19T23:21:56.825Z,4.20
2022-08-19T23:24:25.622Z,3.80
2022-08-19T23:27:12.058Z,3.70
2022-08-19T23:29:59.696Z,3.80
2022-08-19T23:32:28.385Z,2.90
2022-08-19T23:34:57.729Z,2.70
2022-08-19T23:37:28.379Z,2.40
2022-08-19T23:39:57.049Z,2.20
2022-08-19T23:42:26.261Z,1.70
2022-08-19T23:45:01.133Z,1.90
2022-08-19T23:47:31.876Z,1.70
2022-08-19T23:50:05.276Z,2.30
2022-08-19T23:52:34.637Z,1.97
2022-08-19T23:55:03.298Z,1.90
2022-08-19T23:57:31.882Z,1.80
